sensor_id;sensor_type;location;lat;lon;timestamp;pressure;altitude;pressure_sealevel;temperature;humidity
57462;BME280;43308;47.306;8.608;2023-05-19T05:54:24;95460.59;;;9.49;100.00
57462;BME280;43308;47.306;8.608;2023-05-19T05:56:51;95468.66;;;9.12;100.00
57462;BME280;43308;47.306;8.608;2023-05-19T05:59:16;95461.63;;;8.92;100.00
57462;BME280;43308;47.306;8.608;2023-05-19T06:01:42;95463.19;;;9.38;100.00
57462;BME280;43308;47.306;8.608;2023-05-19T06:04:09;95456.34;;;9.37;100.00
57462;BME280;43308;47.306;8.608;2023-05-19T06:06:35;95471.97;;;9.58;100.00
57462;BME280;43308;47.306;8.608;2023-05-19T06:09:03;95454.81;;;9.34;100.00
57462;BME280;43308;47.306;8.608;2023-05-19T06:11:28;95456.59;;;9.34;100.00
57462;BME280;43308;47.306;8.608;2023-05-19T06:13:56;95455.72;;;9.01;100.00
57462;BME280;43308;47.306;8.608;2023-05-19T06:16:42;95459.56;;;9.29;100.00
57462;BME280;43308;47.306;8.608;2023-05-19T06:19:08;95450.94;;;9.40;100.00
57462;BME280;43308;47.306;8.608;2023-05-19T06:21:34;95462.94;;;9.41;100.00
57462;BME280;43308;47.306;8.608;2023-05-19T06:24:00;95462.91;;;9.52;100.00
57462;BME280;43308;47.306;8.608;2023-05-19T06:26:25;95467.09;;;9.21;100.00
57462;BME280;43308;47.306;8.608;2023-05-19T06:28:51;95460.09;;;8.66;100.00
57462;BME280;43308;47.306;8.608;2023-05-19T06:31:16;95459.25;;;9.00;100.00
57462;BME280;43308;47.306;8.608;2023-05-19T06:33:51;95463.84;;;9.19;100.00
57462;BME280;43308;47.306;8.608;2023-05-19T06:36:18;95463.72;;;9.21;100.00
57462;BME280;43308;47.306;8.608;2023-05-19T06:38:45;95456.41;;;9.26;100.00
57462;BME280;43308;47.306;8.608;2023-05-19T06:41:11;95460.59;;;9.49;100.00
57462;BME280;43308;47.306;8.608;2023-05-19T06:43:37;95459.84;;;9.15;100.00
57462;BME280;43308;47.306;8.608;2023-05-19T06:46:03;95457.00;;;9.62;100.00
57462;BME280;43308;47.306;8.608;2023-05-19T06:48:30;95460.84;;;10.00;100.00
57462;BME280;43308;47.306;8.608;2023-05-19T06:50:57;95458.25;;;10.00;100.00
57462;BME280;43308;47.306;8.608;2023-05-19T06:53:23;95458.44;;;10.08;100.00
57462;BME280;43308;47.306;8.608;2023-05-19T06:55:50;95465.72;;;10.14;100.00
57462;BME280;43308;47.306;8.608;2023-05-19T06:58:19;95454.06;;;10.30;100.00
57462;BME280;43308;47.306;8.608;2023-05-19T07:00:45;95459.34;;;10.40;100.00
57462;BME280;43308;47.306;8.608;2023-05-19T07:03:13;95457.25;;;10.12;100.00
57462;BME280;43308;47.306;8.608;2023-05-19T07:05:39;95462.34;;;9.81;100.00
57462;BME280;43308;47.306;8.608;2023-05-19T07:08:05;95462.81;;;9.86;100.00
57462;BME280;43308;47.306;8.608;2023-05-19T07:10:33;95452.75;;;9.61;100.00
57462;BME280;43308;47.306;8.608;2023-05-19T07:12:59;95451.75;;;9.73;100.00
57462;BME280;43308;47.306;8.608;2023-05-19T07:15:29;95475.84;;;9.64;100.00
57462;BME280;43308;47.306;8.608;2023-05-19T07:17:55;95465.59;;;9.62;100.00
57462;BME280;43308;47.306;8.608;2023-05-19T07:20:20;95465.59;;;9.62;100.00
57462;BME280;43308;47.306;8.608;2023-05-19T07:22:46;95464.97;;;9.70;100.00
57462;BME280;43308;47.306;8.608;2023-05-19T07:25:12;95468.31;;;9.61;100.00
57462;BME280;43308;47.306;8.608;2023-05-19T07:27:38;95472.75;;;9.70;100.00
57462;BME280;43308;47.306;8.608;2023-05-19T07:30:04;95464.16;;;9.69;100.00
57462;BME280;43308;47.306;8.608;2023-05-19T07:32:29;95462.19;;;9.62;100.00
57462;BME280;43308;47.306;8.608;2023-05-19T07:34:55;95459.47;;;9.63;100.00
57462;BME280;43308;47.306;8.608;2023-05-19T07:37:20;95457.38;;;9.90;100.00
57462;BME280;43308;47.306;8.608;2023-05-19T07:39:46;95458.72;;;9.73;100.00
57462;BME280;43308;47.306;8.608;2023-05-19T07:42:12;95455.03;;;9.86;100.00
57462;BME280;43308;47.306;8.608;2023-05-19T07:44:37;95443.19;;;9.94;100.00
57462;BME280;43308;47.306;8.608;2023-05-19T07:47:03;95456.03;;;10.16;100.00
57462;BME280;43308;47.306;8.608;2023-05-19T07:49:28;95459.75;;;10.24;100.00
57462;BME280;43308;47.306;8.608;2023-05-19T07:51:54;95458.31;;;10.31;100.00
57462;BME280;43308;47.306;8.608;2023-05-19T07:54:19;95461.19;;;10.28;100.00
57462;BME280;43308;47.306;8.608;2023-05-19T07:56:45;95462.63;;;10.20;100.00
57462;BME280;43308;47.306;8.608;2023-05-19T07:59:13;95457.56;;;10.19;100.00
57462;BME280;43308;47.306;8.608;2023-05-19T08:01:38;95457.69;;;10.17;100.00
57462;BME280;43308;47.306;8.608;2023-05-19T08:04:04;95461.50;;;10.13;100.00
57462;BME280;43308;47.306;8.608;2023-05-19T08:06:30;95456.81;;;10.49;100.00
57462;BME280;43308;47.306;8.608;2023-05-19T08:08:56;95448.06;;;10.72;100.00
57462;BME280;43308;47.306;8.608;2023-05-19T08:11:21;95448.16;;;11.01;100.00
57462;BME280;43308;47.306;8.608;2023-05-19T08:13:47;95434.38;;;10.79;100.00
57462;BME280;43308;47.306;8.608;2023-05-19T08:16:14;95441.25;;;10.90;100.00
57462;BME280;43308;47.306;8.608;2023-05-19T08:18:40;95441.06;;;11.13;100.00
57462;BME280;43308;47.306;8.608;2023-05-19T08:21:06;95438.78;;;11.39;100.00
57462;BME280;43308;47.306;8.608;2023-05-19T08:23:32;95434.00;;;11.34;100.00
57462;BME280;43308;47.306;8.608;2023-05-19T08:25:58;95438.06;;;11.27;100.00
57462;BME280;43308;47.306;8.608;2023-05-19T08:28:24;95443.50;;;11.05;100.00
57462;BME280;43308;47.306;8.608;2023-05-19T08:30:50;95433.56;;;11.19;100.00
57462;BME280;43308;47.306;8.608;2023-05-19T08:33:17;95430.00;;;11.20;100.00
57462;BME280;43308;47.306;8.608;2023-05-19T08:35:45;95427.97;;;11.34;100.00
57462;BME280;43308;47.306;8.608;2023-05-19T08:38:10;95423.47;;;11.46;100.00
57462;BME280;43308;47.306;8.608;2023-05-19T08:40:36;95428.94;;;11.52;100.00
57462;BME280;43308;47.306;8.608;2023-05-19T08:43:05;95431.72;;;11.61;100.00
57462;BME280;43308;47.306;8.608;2023-05-19T08:45:32;95436.22;;;11.59;100.00
57462;BME280;43308;47.306;8.608;2023-05-19T08:47:59;95421.09;;;11.13;100.00
57462;BME280;43308;47.306;8.608;2023-05-19T08:50:34;95417.69;;;11.23;100.00
57462;BME280;43308;47.306;8.608;2023-05-19T08:53:09;95425.25;;;11.55;100.00
57462;BME280;43308;47.306;8.608;2023-05-19T08:58:06;95421.56;;;12.07;100.00
57462;BME280;43308;47.306;8.608;2023-05-19T09:00:32;95428.00;;;12.22;100.00
57462;BME280;43308;47.306;8.608;2023-05-19T09:02:59;95431.88;;;12.56;100.00
57462;BME280;43308;47.306;8.608;2023-05-19T09:05:25;95432.91;;;12.25;100.00
57462;BME280;43308;47.306;8.608;2023-05-19T09:07:50;95426.56;;;12.47;100.00
57462;BME280;43308;47.306;8.608;2023-05-19T09:10:16;95416.88;;;12.30;100.00
57462;BME280;43308;47.306;8.608;2023-05-19T09:12:44;95426.81;;;12.44;100.00
57462;BME280;43308;47.306;8.608;2023-05-19T09:15:10;95421.84;;;12.61;100.00
57462;BME280;43308;47.306;8.608;2023-05-19T09:17:37;95422.53;;;12.06;100.00
57462;BME280;43308;47.306;8.608;2023-05-19T09:20:04;95416.28;;;12.46;100.00
57462;BME280;43308;47.306;8.608;2023-05-19T09:22:44;95424.94;;;12.36;100.00
57462;BME280;43308;47.306;8.608;2023-05-19T09:25:19;95413.53;;;12.85;100.00
57462;BME280;43308;47.306;8.608;2023-05-19T09:27:48;95408.16;;;13.14;98.42
57462;BME280;43308;47.306;8.608;2023-05-19T09:30:16;95414.78;;;13.36;94.70
57462;BME280;43308;47.306;8.608;2023-05-19T09:32:43;95407.03;;;13.45;94.64
57462;BME280;43308;47.306;8.608;2023-05-19T09:35:10;95414.31;;;12.95;96.28
57462;BME280;43308;47.306;8.608;2023-05-19T09:37:39;95402.38;;;12.65;100.00
57462;BME280;43308;47.306;8.608;2023-05-19T09:40:07;95423.88;;;12.95;100.00
57462;BME280;43308;47.306;8.608;2023-05-19T09:42:37;95414.56;;;13.20;96.15
57462;BME280;43308;47.306;8.608;2023-05-19T09:45:03;95416.44;;;13.10;97.42
57462;BME280;43308;47.306;8.608;2023-05-19T09:47:39;95423.47;;;12.99;96.52
57462;BME280;43308;47.306;8.608;2023-05-19T09:50:10;95419.84;;;12.82;95.56
57462;BME280;43308;47.306;8.608;2023-05-19T09:52:37;95430.16;;;12.74;97.27
57462;BME280;43308;47.306;8.608;2023-05-19T09:55:04;95422.50;;;13.00;96.76
57462;BME280;43308;47.306;8.608;2023-05-19T09:57:34;95422.03;;;12.87;100.00
57462;BME280;43308;47.306;8.608;2023-05-19T10:00:07;95421.69;;;13.00;100.00
57462;BME280;43308;47.306;8.608;2023-05-19T10:02:45;95413.38;;;12.86;95.17
57462;BME280;43308;47.306;8.608;2023-05-19T10:05:18;95429.22;;;12.28;98.99
57462;BME280;43308;47.306;8.608;2023-05-19T10:07:51;95425.13;;;12.63;97.61
57462;BME280;43308;47.306;8.608;2023-05-19T10:10:17;95424.84;;;12.66;100.00
57462;BME280;43308;47.306;8.608;2023-05-19T10:12:46;95426.31;;;12.41;97.53
57462;BME280;43308;47.306;8.608;2023-05-19T10:15:14;95420.13;;;12.79;98.30
57462;BME280;43308;47.306;8.608;2023-05-19T10:17:42;95423.56;;;12.42;100.00
57462;BME280;43308;47.306;8.608;2023-05-19T10:20:12;95422.06;;;12.40;100.00
57462;BME280;43308;47.306;8.608;2023-05-19T10:22:40;95412.38;;;12.60;100.00
57462;BME280;43308;47.306;8.608;2023-05-19T10:25:07;95413.44;;;12.77;100.00
57462;BME280;43308;47.306;8.608;2023-05-19T10:27:48;95401.75;;;13.27;98.42
57462;BME280;43308;47.306;8.608;2023-05-19T10:30:39;95398.66;;;12.95;98.82
57462;BME280;43308;47.306;8.608;2023-05-19T10:33:09;95397.06;;;13.12;98.06
57462;BME280;43308;47.306;8.608;2023-05-19T10:38:29;95403.75;;;13.61;95.12
57462;BME280;43308;47.306;8.608;2023-05-19T10:43:43;95400.19;;;14.24;92.30
57462;BME280;43308;47.306;8.608;2023-05-19T10:46:11;95394.31;;;14.57;90.21
57462;BME280;43308;47.306;8.608;2023-05-19T10:48:37;95406.72;;;14.55;88.50
57462;BME280;43308;47.306;8.608;2023-05-19T10:51:03;95390.63;;;14.67;86.67
57462;BME280;43308;47.306;8.608;2023-05-19T10:53:33;95400.13;;;14.68;89.02
57462;BME280;43308;47.306;8.608;2023-05-19T10:56:02;95400.22;;;14.59;88.75
57462;BME280;43308;47.306;8.608;2023-05-19T10:58:51;95411.13;;;14.28;86.29
57462;BME280;43308;47.306;8.608;2023-05-19T11:01:18;95411.19;;;13.92;89.97
57462;BME280;43308;47.306;8.608;2023-05-19T11:03:49;95410.25;;;13.57;91.54
57462;BME280;43308;47.306;8.608;2023-05-19T11:06:26;95407.66;;;14.01;93.94
57462;BME280;43308;47.306;8.608;2023-05-19T11:09:21;95400.66;;;14.28;89.63
57462;BME280;43308;47.306;8.608;2023-05-19T11:11:49;95395.97;;;14.58;89.50
57462;BME280;43308;47.306;8.608;2023-05-19T11:14:24;95405.63;;;13.68;88.73
57462;BME280;43308;47.306;8.608;2023-05-19T11:16:58;95412.66;;;12.94;95.10
57462;BME280;43308;47.306;8.608;2023-05-19T11:19:28;95409.88;;;13.06;94.54
57462;BME280;43308;47.306;8.608;2023-05-19T11:21:55;95402.56;;;12.81;98.04
57462;BME280;43308;47.306;8.608;2023-05-19T11:24:47;95406.41;;;13.33;99.22
57462;BME280;43308;47.306;8.608;2023-05-19T11:27:25;95408.22;;;13.50;98.05
57462;BME280;43308;47.306;8.608;2023-05-19T11:30:08;95405.25;;;13.63;95.38
57462;BME280;43308;47.306;8.608;2023-05-19T11:32:38;95400.78;;;14.18;94.05
57462;BME280;43308;47.306;8.608;2023-05-19T11:35:07;95401.16;;;14.05;91.39
57462;BME280;43308;47.306;8.608;2023-05-19T11:37:34;95387.47;;;14.03;91.20
57462;BME280;43308;47.306;8.608;2023-05-19T11:40:00;95379.41;;;14.49;92.32
57462;BME280;43308;47.306;8.608;2023-05-19T11:42:26;95387.75;;;14.79;90.70
57462;BME280;43308;47.306;8.608;2023-05-19T11:44:55;95386.28;;;14.24;91.01
57462;BME280;43308;47.306;8.608;2023-05-19T11:47:20;95374.03;;;14.77;88.56
57462;BME280;43308;47.306;8.608;2023-05-19T11:49:50;95373.50;;;14.39;92.78
57462;BME280;43308;47.306;8.608;2023-05-19T11:52:16;95380.41;;;14.48;88.46
57462;BME280;43308;47.306;8.608;2023-05-19T11:54:42;95375.56;;;14.96;87.54
57462;BME280;43308;47.306;8.608;2023-05-19T11:57:10;95383.22;;;14.02;86.48
57462;BME280;43308;47.306;8.608;2023-05-19T11:59:37;95388.44;;;14.28;87.36
57462;BME280;43308;47.306;8.608;2023-05-19T12:02:23;95391.09;;;14.36;87.99
57462;BME280;43308;47.306;8.608;2023-05-19T12:04:52;95399.56;;;14.04;89.10
57462;BME280;43308;47.306;8.608;2023-05-19T12:07:22;95397.28;;;14.09;88.89
57462;BME280;43308;47.306;8.608;2023-05-19T12:09:49;95392.03;;;14.27;89.11
57462;BME280;43308;47.306;8.608;2023-05-19T12:12:16;95386.13;;;14.25;90.10
57462;BME280;43308;47.306;8.608;2023-05-19T12:14:45;95394.69;;;14.35;90.18
57462;BME280;43308;47.306;8.608;2023-05-19T12:17:16;95388.69;;;14.69;88.36
57462;BME280;43308;47.306;8.608;2023-05-19T12:19:43;95384.91;;;15.07;87.33
57462;BME280;43308;47.306;8.608;2023-05-19T12:22:09;95386.03;;;14.96;84.63
57462;BME280;43308;47.306;8.608;2023-05-19T12:24:36;95381.78;;;14.95;84.85
57462;BME280;43308;47.306;8.608;2023-05-19T12:27:17;95384.38;;;14.86;83.09
57462;BME280;43308;47.306;8.608;2023-05-19T12:29:48;95368.31;;;14.73;84.60
57462;BME280;43308;47.306;8.608;2023-05-19T12:32:16;95381.59;;;15.72;82.14
57462;BME280;43308;47.306;8.608;2023-05-19T12:34:41;95375.53;;;15.47;80.01
57462;BME280;43308;47.306;8.608;2023-05-19T12:37:09;95369.47;;;15.79;79.19
57462;BME280;43308;47.306;8.608;2023-05-19T12:39:35;95373.75;;;15.89;78.63
57462;BME280;43308;47.306;8.608;2023-05-19T12:42:02;95373.94;;;16.12;77.72
57462;BME280;43308;47.306;8.608;2023-05-19T12:44:28;95364.59;;;16.09;77.07
57462;BME280;43308;47.306;8.608;2023-05-19T12:46:58;95371.47;;;16.02;79.40
57462;BME280;43308;47.306;8.608;2023-05-19T12:49:24;95366.34;;;16.33;76.65
57462;BME280;43308;47.306;8.608;2023-05-19T12:51:51;95360.50;;;15.57;76.58
57462;BME280;43308;47.306;8.608;2023-05-19T12:54:20;95354.47;;;15.90;79.43
57462;BME280;43308;47.306;8.608;2023-05-19T12:56:52;95360.75;;;16.36;76.12
57462;BME280;43308;47.306;8.608;2023-05-19T12:59:22;95363.31;;;16.61;75.76
57462;BME280;43308;47.306;8.608;2023-05-19T13:01:56;95358.91;;;16.53;72.91
57462;BME280;43308;47.306;8.608;2023-05-19T13:04:22;95358.53;;;15.76;73.54
57462;BME280;43308;47.306;8.608;2023-05-19T13:06:47;95356.66;;;16.34;75.53
57462;BME280;43308;47.306;8.608;2023-05-19T13:09:14;95345.13;;;16.68;73.24
57462;BME280;43308;47.306;8.608;2023-05-19T13:11:42;95354.31;;;15.99;72.64
57462;BME280;43308;47.306;8.608;2023-05-19T13:14:08;95348.84;;;16.17;78.53
57462;BME280;43308;47.306;8.608;2023-05-19T13:16:34;95341.41;;;16.54;75.21
57462;BME280;43308;47.306;8.608;2023-05-19T13:19:00;95351.59;;;16.97;73.59
57462;BME280;43308;47.306;8.608;2023-05-19T13:21:26;95355.97;;;16.48;75.38
57462;BME280;43308;47.306;8.608;2023-05-19T13:23:52;95359.25;;;16.59;73.89
57462;BME280;43308;47.306;8.608;2023-05-19T13:26:17;95358.22;;;16.12;75.03
57462;BME280;43308;47.306;8.608;2023-05-19T13:28:43;95357.53;;;16.18;75.51
57462;BME280;43308;47.306;8.608;2023-05-19T13:31:09;95346.28;;;16.01;76.66
57462;BME280;43308;47.306;8.608;2023-05-19T13:33:34;95352.47;;;16.25;74.89
57462;BME280;43308;47.306;8.608;2023-05-19T13:36:00;95346.91;;;15.70;77.14
57462;BME280;43308;47.306;8.608;2023-05-19T13:38:25;95342.50;;;15.95;75.83
57462;BME280;43308;47.306;8.608;2023-05-19T13:40:51;95346.41;;;15.75;77.57
57462;BME280;43308;47.306;8.608;2023-05-19T13:43:16;95343.66;;;15.60;77.91
57462;BME280;43308;47.306;8.608;2023-05-19T13:45:42;95353.75;;;15.38;82.81
57462;BME280;43308;47.306;8.608;2023-05-19T13:48:08;95348.59;;;14.95;79.64
57462;BME280;43308;47.306;8.608;2023-05-19T13:50:36;95351.44;;;14.67;81.36
57462;BME280;43308;47.306;8.608;2023-05-19T13:53:01;95354.66;;;14.96;81.49
57462;BME280;43308;47.306;8.608;2023-05-19T13:55:28;95356.75;;;14.84;83.16
57462;BME280;43308;47.306;8.608;2023-05-19T13:57:53;95353.47;;;14.90;83.27
57462;BME280;43308;47.306;8.608;2023-05-19T14:00:19;95346.41;;;14.74;84.73
57462;BME280;43308;47.306;8.608;2023-05-19T14:02:45;95354.44;;;14.81;84.33
57462;BME280;43308;47.306;8.608;2023-05-19T14:05:11;95349.50;;;14.69;84.14
57462;BME280;43308;47.306;8.608;2023-05-19T14:07:36;95352.84;;;14.53;85.89
57462;BME280;43308;47.306;8.608;2023-05-19T14:10:03;95347.97;;;14.59;85.01
57462;BME280;43308;47.306;8.608;2023-05-19T14:12:31;95353.75;;;14.44;84.83
57462;BME280;43308;47.306;8.608;2023-05-19T14:14:57;95347.03;;;14.33;84.32
57462;BME280;43308;47.306;8.608;2023-05-19T14:17:22;95348.59;;;14.61;87.80
57462;BME280;43308;47.306;8.608;2023-05-19T14:19:48;95341.34;;;14.73;85.50
57462;BME280;43308;47.306;8.608;2023-05-19T14:22:13;95345.53;;;15.08;82.57
57462;BME280;43308;47.306;8.608;2023-05-19T14:24:39;95333.81;;;15.37;82.40
57462;BME280;43308;47.306;8.608;2023-05-19T14:27:05;95345.94;;;15.55;80.73
57462;BME280;43308;47.306;8.608;2023-05-19T14:29:31;95341.81;;;15.35;80.22
57462;BME280;43308;47.306;8.608;2023-05-19T14:31:56;95334.72;;;14.95;81.88
57462;BME280;43308;47.306;8.608;2023-05-19T14:34:22;95334.38;;;14.90;82.54
57462;BME280;43308;47.306;8.608;2023-05-19T14:36:48;95342.34;;;14.80;83.08
57462;BME280;43308;47.306;8.608;2023-05-19T14:39:13;95342.66;;;14.50;83.96
57462;BME280;43308;47.306;8.608;2023-05-19T14:41:39;95345.63;;;14.56;85.49
57462;BME280;43308;47.306;8.608;2023-05-19T14:44:04;95336.97;;;14.20;85.46
57462;BME280;43308;47.306;8.608;2023-05-19T14:46:30;95341.31;;;14.38;86.03
57462;BME280;43308;47.306;8.608;2023-05-19T14:48:56;95334.81;;;14.42;87.37
57462;BME280;43308;47.306;8.608;2023-05-19T14:51:21;95341.06;;;14.49;87.02
57462;BME280;43308;47.306;8.608;2023-05-19T14:53:47;95334.75;;;14.34;86.49
57462;BME280;43308;47.306;8.608;2023-05-19T14:56:14;95332.84;;;14.36;87.07
57462;BME280;43308;47.306;8.608;2023-05-19T14:58:40;95340.22;;;14.49;87.86
57462;BME280;43308;47.306;8.608;2023-05-19T15:01:05;95340.41;;;14.21;88.29
57462;BME280;43308;47.306;8.608;2023-05-19T15:03:31;95342.59;;;14.08;87.90
57462;BME280;43308;47.306;8.608;2023-05-19T15:05:56;95332.63;;;14.03;88.74
57462;BME280;43308;47.306;8.608;2023-05-19T15:08:22;95346.34;;;14.05;89.65
57462;BME280;43308;47.306;8.608;2023-05-19T15:10:48;95344.66;;;13.96;88.50
57462;BME280;43308;47.306;8.608;2023-05-19T15:13:14;95342.88;;;13.96;90.25
57462;BME280;43308;47.306;8.608;2023-05-19T15:15:40;95339.78;;;14.01;88.64
57462;BME280;43308;47.306;8.608;2023-05-19T15:18:06;95329.41;;;14.09;90.04
57462;BME280;43308;47.306;8.608;2023-05-19T15:20:31;95337.53;;;13.80;89.50
57462;BME280;43308;47.306;8.608;2023-05-19T15:22:57;95328.22;;;13.77;89.14
57462;BME280;43308;47.306;8.608;2023-05-19T15:25:22;95331.47;;;13.97;88.80
57462;BME280;43308;47.306;8.608;2023-05-19T15:27:48;95332.38;;;13.88;90.97
57462;BME280;43308;47.306;8.608;2023-05-19T15:30:13;95344.22;;;13.82;90.31
57462;BME280;43308;47.306;8.608;2023-05-19T15:32:39;95346.72;;;13.66;89.93
57462;BME280;43308;47.306;8.608;2023-05-19T15:35:05;95337.13;;;13.48;92.39
57462;BME280;43308;47.306;8.608;2023-05-19T15:37:30;95346.88;;;13.46;92.31
57462;BME280;43308;47.306;8.608;2023-05-19T15:39:56;95346.50;;;13.41;91.80
57462;BME280;43308;47.306;8.608;2023-05-19T15:42:21;95332.72;;;13.49;92.82
57462;BME280;43308;47.306;8.608;2023-05-19T15:44:47;95336.06;;;13.59;94.16
57462;BME280;43308;47.306;8.608;2023-05-19T15:47:13;95334.91;;;13.53;95.51
57462;BME280;43308;47.306;8.608;2023-05-19T15:49:38;95329.97;;;13.32;92.41
57462;BME280;43308;47.306;8.608;2023-05-19T15:52:04;95331.97;;;13.39;95.44
57462;BME280;43308;47.306;8.608;2023-05-19T15:54:30;95331.06;;;13.30;95.42
57462;BME280;43308;47.306;8.608;2023-05-19T15:56:55;95336.28;;;13.30;96.36
57462;BME280;43308;47.306;8.608;2023-05-19T15:59:21;95327.63;;;13.29;95.48
57462;BME280;43308;47.306;8.608;2023-05-19T16:01:46;95335.53;;;13.19;96.87
57462;BME280;43308;47.306;8.608;2023-05-19T16:04:12;95335.97;;;13.33;98.15
57462;BME280;43308;47.306;8.608;2023-05-19T16:06:37;95330.09;;;13.13;96.12
57462;BME280;43308;47.306;8.608;2023-05-19T16:09:03;95332.56;;;12.96;97.82
57462;BME280;43308;47.306;8.608;2023-05-19T16:11:28;95325.22;;;13.00;97.96
57462;BME280;43308;47.306;8.608;2023-05-19T16:13:54;95324.66;;;13.06;100.00
57462;BME280;43308;47.306;8.608;2023-05-19T16:16:19;95320.19;;;12.98;99.15
57462;BME280;43308;47.306;8.608;2023-05-19T16:18:45;95317.41;;;12.82;100.00
57462;BME280;43308;47.306;8.608;2023-05-19T16:21:11;95327.00;;;12.81;100.00
57462;BME280;43308;47.306;8.608;2023-05-19T16:23:36;95313.16;;;12.81;100.00
57462;BME280;43308;47.306;8.608;2023-05-19T16:26:02;95313.38;;;12.88;100.00
57462;BME280;43308;47.306;8.608;2023-05-19T16:28:27;95315.22;;;12.77;100.00
57462;BME280;43308;47.306;8.608;2023-05-19T16:30:59;95309.34;;;12.75;100.00
57462;BME280;43308;47.306;8.608;2023-05-19T16:33:26;95317.19;;;12.75;100.00
57462;BME280;43308;47.306;8.608;2023-05-19T16:35:52;95311.50;;;12.62;100.00
57462;BME280;43308;47.306;8.608;2023-05-19T16:38:17;95310.13;;;12.58;100.00
57462;BME280;43308;47.306;8.608;2023-05-19T16:40:43;95315.53;;;12.46;100.00
57462;BME280;43308;47.306;8.608;2023-05-19T16:43:09;95319.16;;;12.35;100.00
57462;BME280;43308;47.306;8.608;2023-05-19T16:45:35;95326.91;;;12.45;100.00
57462;BME280;43308;47.306;8.608;2023-05-19T16:48:01;95321.28;;;12.50;100.00
57462;BME280;43308;47.306;8.608;2023-05-19T16:50:26;95312.47;;;12.51;100.00
57462;BME280;43308;47.306;8.608;2023-05-19T16:52:52;95306.63;;;12.49;100.00
57462;BME280;43308;47.306;8.608;2023-05-19T16:55:17;95311.72;;;12.41;100.00
57462;BME280;43308;47.306;8.608;2023-05-19T16:57:47;95314.75;;;12.36;100.00
57462;BME280;43308;47.306;8.608;2023-05-19T17:00:14;95303.47;;;12.45;100.00
57462;BME280;43308;47.306;8.608;2023-05-19T17:02:40;95305.69;;;12.40;100.00
57462;BME280;43308;47.306;8.608;2023-05-19T17:05:05;95309.84;;;12.33;100.00
57462;BME280;43308;47.306;8.608;2023-05-19T17:07:31;95300.28;;;12.24;100.00
57462;BME280;43308;47.306;8.608;2023-05-19T17:09:57;95308.50;;;12.29;100.00
57462;BME280;43308;47.306;8.608;2023-05-19T17:12:22;95316.19;;;12.21;100.00
57462;BME280;43308;47.306;8.608;2023-05-19T17:14:48;95300.69;;;12.19;100.00
57462;BME280;43308;47.306;8.608;2023-05-19T17:17:16;95306.03;;;12.27;100.00
57462;BME280;43308;47.306;8.608;2023-05-19T17:19:42;95314.50;;;12.29;100.00
57462;BME280;43308;47.306;8.608;2023-05-19T17:22:07;95314.25;;;12.23;100.00
57462;BME280;43308;47.306;8.608;2023-05-19T17:24:33;95320.88;;;12.07;100.00
57462;BME280;43308;47.306;8.608;2023-05-19T17:26:59;95313.19;;;12.15;100.00
57462;BME280;43308;47.306;8.608;2023-05-19T17:29:25;95313.19;;;12.15;100.00
57462;BME280;43308;47.306;8.608;2023-05-19T17:31:54;95317.31;;;12.08;100.00
57462;BME280;43308;47.306;8.608;2023-05-19T17:34:19;95317.31;;;12.08;100.00
57462;BME280;43308;47.306;8.608;2023-05-19T17:36:45;95317.06;;;12.01;100.00
57462;BME280;43308;47.306;8.608;2023-05-19T17:39:11;95310.47;;;12.07;100.00
57462;BME280;43308;47.306;8.608;2023-05-19T17:41:36;95306.13;;;11.98;100.00
57462;BME280;43308;47.306;8.608;2023-05-19T17:44:02;95310.66;;;11.86;100.00
57462;BME280;43308;47.306;8.608;2023-05-19T17:46:28;95310.66;;;11.96;100.00
57462;BME280;43308;47.306;8.608;2023-05-19T17:48:59;95316.28;;;11.72;100.00
57462;BME280;43308;47.306;8.608;2023-05-19T17:51:26;95316.44;;;11.70;100.00
57462;BME280;43308;47.306;8.608;2023-05-19T17:53:54;95307.38;;;11.84;100.00
57462;BME280;43308;47.306;8.608;2023-05-19T17:56:21;95312.69;;;11.92;100.00
57462;BME280;43308;47.306;8.608;2023-05-19T17:58:47;95314.22;;;11.95;100.00
57462;BME280;43308;47.306;8.608;2023-05-19T18:01:16;95305.34;;;11.68;100.00
57462;BME280;43308;47.306;8.608;2023-05-19T18:03:42;95310.94;;;11.73;100.00
57462;BME280;43308;47.306;8.608;2023-05-19T18:06:17;95318.88;;;11.81;100.00
57462;BME280;43308;47.306;8.608;2023-05-19T18:08:44;95319.31;;;11.77;100.00
57462;BME280;43308;47.306;8.608;2023-05-19T18:11:15;95315.47;;;11.61;100.00
57462;BME280;43308;47.306;8.608;2023-05-19T18:13:41;95322.00;;;11.75;100.00
57462;BME280;43308;47.306;8.608;2023-05-19T18:16:08;95318.91;;;11.62;100.00
57462;BME280;43308;47.306;8.608;2023-05-19T18:18:33;95314.34;;;11.74;100.00
57462;BME280;43308;47.306;8.608;2023-05-19T18:21:08;95317.94;;;11.73;100.00
57462;BME280;43308;47.306;8.608;2023-05-19T18:23:39;95319.81;;;11.80;100.00
57462;BME280;43308;47.306;8.608;2023-05-19T18:26:05;95321.06;;;11.76;100.00
57462;BME280;43308;47.306;8.608;2023-05-19T18:28:31;95316.44;;;11.70;100.00
57462;BME280;43308;47.306;8.608;2023-05-19T18:31:01;95313.00;;;11.69;100.00
57462;BME280;43308;47.306;8.608;2023-05-19T18:33:27;95325.34;;;11.67;100.00
57462;BME280;43308;47.306;8.608;2023-05-19T18:35:53;95316.56;;;11.59;100.00
57462;BME280;43308;47.306;8.608;2023-05-19T18:38:19;95313.84;;;11.50;100.00
57462;BME280;43308;47.306;8.608;2023-05-19T18:40:48;95319.31;;;11.57;100.00
57462;BME280;43308;47.306;8.608;2023-05-19T18:43:14;95319.59;;;11.44;100.00
57462;BME280;43308;47.306;8.608;2023-05-19T18:45:39;95317.69;;;11.46;100.00
57462;BME280;43308;47.306;8.608;2023-05-19T18:48:05;95326.72;;;11.52;100.00
57462;BME280;43308;47.306;8.608;2023-05-19T18:50:32;95326.44;;;11.45;100.00
57462;BME280;43308;47.306;8.608;2023-05-19T18:52:58;95326.72;;;11.42;100.00
57462;BME280;43308;47.306;8.608;2023-05-19T18:55:23;95314.97;;;11.38;100.00
57462;BME280;43308;47.306;8.608;2023-05-19T18:57:49;95323.03;;;11.25;100.00